Donnington, United Kingdom
Current Conditions -  °F | °C
As of 4:50 PM on Saturday 20 Dec 2014 (Local Time) from EGVN Reporting Station
Broken Clouds Broken Clouds  
Wind Chill: 40°   Ceiling: 25000
Heat Index: 45°   Visibility: 6mi
Dew Point: 36°   Wind: 8mph
Humidity: 71%   Direction: 270°W
Pressure: 30.36"   Gusts: NA
Location:  51.95°N, 1.72°W
Report Text: EGVN 201650Z 27007KT 9999 FEW040 BKN250 07/02 Q1028 NOSIG
Loading
Personal Weather Stations






























Interactive Weather Map New forecast layout! Learn more

10-Day Weather Forecast

Advertisements
Track Severe Weather on mobile